Time;durP1;ratioP1;P1;durP2;ratioP2;P2;SDS_P1;SDS_P2;PMS_P1;PMS_P2;Temp;Humidity;BMP_temperature;BMP_pressure;BME280_temperature;BME280_humidity;BME280_pressure;Samples;Min_cycle;Max_cycle;Signal;HPM_P1;HPM_P2
2024/02/11 00:00:30;;;;;;;19.40;16.58;;;;;;;9.51;82.65;95359.63;5072561;28;20036;-69
2024/02/11 00:02:59;;;;;;;22.50;16.25;;;;;;;9.46;82.52;95362.44;5078905;28;20444;-69
2024/02/11 00:05:31;;;;;;;18.67;15.70;;;;;;;9.41;82.47;95354.50;5079420;28;20036;-69
2024/02/11 00:08:02;;;;;;;19.48;16.13;;;;;;;9.36;82.50;95359.97;5046852;28;20541;-69
2024/02/11 00:10:28;;;;;;;18.75;15.88;;;;;;;9.18;82.57;95341.38;5075066;28;20036;-69
2024/02/11 00:12:53;;;;;;;20.17;16.17;;;;;;;9.25;82.77;95361.34;5069645;28;20040;-70
2024/02/11 00:15:19;;;;;;;19.00;15.40;;;;;;;9.17;82.63;95358.59;5071531;28;20040;-70
2024/02/11 00:17:46;;;;;;;18.48;15.98;;;;;;;9.14;82.56;95359.19;5069190;28;20031;-69
2024/02/11 00:20:14;;;;;;;20.17;16.75;;;;;;;9.07;82.72;95356.94;5063756;28;20032;-69
2024/02/11 00:22:40;;;;;;;20.75;17.60;;;;;;;9.04;82.59;95361.03;5062061;28;20024;-69
2024/02/11 00:25:09;;;;;;;20.35;17.25;;;;;;;8.91;82.53;95342.28;5071222;28;20443;-70
2024/02/11 00:27:35;;;;;;;18.45;16.58;;;;;;;8.90;82.65;95348.72;5070984;28;20040;-70
2024/02/11 00:30:01;;;;;;;22.08;18.80;;;;;;;8.87;82.88;95352.00;5070062;28;20446;-69
2024/02/11 00:32:26;;;;;;;21.27;17.92;;;;;;;8.73;82.63;95337.84;5071137;28;20020;-70
2024/02/11 00:34:54;;;;;;;19.73;17.00;;;;;;;8.74;83.21;95340.25;5069930;28;20033;-70
2024/02/11 00:37:19;;;;;;;19.70;16.58;;;;;;;8.79;83.04;95355.44;5065826;28;20028;-70
2024/02/11 00:39:45;;;;;;;19.88;17.23;;;;;;;8.75;82.87;95349.09;5072842;28;20036;-70
2024/02/11 00:42:10;;;;;;;18.58;15.50;;;;;;;8.70;83.11;95354.56;5071711;28;20016;-69
2024/02/11 00:44:37;;;;;;;20.25;17.15;;;;;;;8.68;83.05;95356.75;5067557;28;20040;-69
2024/02/11 00:47:03;;;;;;;19.92;17.83;;;;;;;8.58;83.10;95346.25;5073894;28;20052;-69
2024/02/11 00:49:28;;;;;;;21.10;18.30;;;;;;;8.55;83.21;95352.19;5073631;28;20124;-70
2024/02/11 00:51:54;;;;;;;24.35;20.63;;;;;;;8.62;83.21;95355.25;5067376;28;20191;-70
2024/02/11 00:54:20;;;;;;;26.45;22.83;;;;;;;8.50;83.55;95344.25;5074316;28;20063;-70
2024/02/11 00:56:46;;;;;;;27.23;22.85;;;;;;;8.58;83.26;95359.66;5072398;28;20099;-70
2024/02/11 00:59:16;;;;;;;24.58;20.75;;;;;;;8.53;83.39;95359.75;5074725;28;20067;-70
2024/02/11 01:01:41;;;;;;;27.23;23.77;;;;;;;8.48;83.53;95357.16;5070499;28;20396;-71
2024/02/11 01:04:07;;;;;;;24.50;21.45;;;;;;;8.35;83.86;95348.84;5075389;28;20020;-71
2024/02/11 01:06:33;;;;;;;27.42;22.60;;;;;;;8.39;83.89;95367.81;5068718;28;20067;-71
2024/02/11 01:08:59;;;;;;;25.23;21.55;;;;;;;8.31;84.46;95368.50;5074978;28;20025;-71
2024/02/11 01:11:25;;;;;;;35.08;22.55;;;;;;;8.28;84.18;95364.53;5073674;28;20101;-71
2024/02/11 01:13:50;;;;;;;26.80;20.70;;;;;;;8.27;83.83;95362.97;5075176;28;20036;-71
2024/02/11 01:16:16;;;;;;;26.95;21.42;;;;;;;8.28;83.87;95361.84;5074877;28;20029;-71
2024/02/11 01:18:43;;;;;;;24.48;20.27;;;;;;;8.30;84.53;95362.38;5073460;28;20025;-70
2024/02/11 01:21:09;;;;;;;25.45;20.67;;;;;;;8.31;84.41;95366.63;5071524;28;20121;-70
2024/02/11 01:23:35;;;;;;;23.73;20.38;;;;;;;8.32;84.89;95365.53;5074329;28;20034;-70
2024/02/11 01:26:00;;;;;;;23.75;19.73;;;;;;;8.33;85.02;95372.47;5068988;28;20608;-70
2024/02/11 01:28:27;;;;;;;22.80;19.88;;;;;;;8.35;84.48;95367.63;5074228;28;20017;-70
2024/02/11 01:30:53;;;;;;;25.63;21.08;;;;;;;8.35;85.13;95364.94;5074397;28;20044;-70
2024/02/11 01:33:19;;;;;;;22.42;19.92;;;;;;;8.33;84.95;95366.34;5074303;28;20507;-70
2024/02/11 01:35:45;;;;;;;24.25;20.23;;;;;;;8.36;85.57;95376.47;5072987;28;20036;-70
2024/02/11 01:38:10;;;;;;;24.42;20.25;;;;;;;8.39;85.13;95375.06;5070338;28;20030;-69
2024/02/11 01:40:36;;;;;;;22.10;18.98;;;;;;;8.25;85.16;95351.72;5073909;28;20404;-70
2024/02/11 01:43:07;;;;;;;26.10;20.50;;;;;;;8.25;85.96;95353.59;5074257;28;20028;-71
2024/02/11 01:45:35;;;;;;;23.90;20.08;;;;;;;8.42;86.03;95386.00;5074273;28;20036;-71
2024/02/11 01:48:02;;;;;;;26.33;21.33;;;;;;;8.35;86.34;95370.28;5074804;28;20027;-71
2024/02/11 01:50:31;;;;;;;26.38;21.45;;;;;;;8.41;86.17;95388.97;5074102;28;20110;-71
2024/02/11 01:52:57;;;;;;;23.10;19.70;;;;;;;8.38;86.08;95386.91;5074570;28;20050;-71
2024/02/11 01:55:24;;;;;;;23.98;20.17;;;;;;;8.25;86.68;95389.25;5074311;28;20043;-71
2024/02/11 01:57:53;;;;;;;30.60;21.73;;;;;;;8.27;86.31;95395.13;5072580;28;20035;-71
2024/02/11 02:00:19;;;;;;;25.92;21.52;;;;;;;8.25;85.86;95397.28;5074004;28;20532;-71
2024/02/11 02:02:47;;;;;;;25.58;22.00;;;;;;;8.27;86.02;95403.19;5074167;28;20024;-70
2024/02/11 02:05:14;;;;;;;26.23;21.90;;;;;;;8.28;86.17;95401.31;5070022;28;20035;-71
2024/02/11 02:07:39;;;;;;;32.15;23.02;;;;;;;8.25;86.05;95407.22;5073851;28;20025;-71
2024/02/11 02:10:06;;;;;;;25.90;20.25;;;;;;;8.20;86.21;95415.34;5071455;28;20480;-71
2024/02/11 02:12:31;;;;;;;23.00;19.90;;;;;;;8.25;86.24;95408.00;5068261;28;20154;-71
2024/02/11 02:14:57;;;;;;;25.42;20.40;;;;;;;8.26;86.42;95408.84;5070745;28;20492;-71
2024/02/11 02:17:22;;;;;;;25.83;20.67;;;;;;;8.26;85.89;95409.63;5053538;28;20020;-69
2024/02/11 02:19:47;;;;;;;24.90;20.27;;;;;;;8.15;86.39;95389.44;5069514;28;20111;-70
2024/02/11 02:22:13;;;;;;;25.48;20.55;;;;;;;8.27;86.27;95411.22;5071242;28;20028;-70
2024/02/11 02:24:38;;;;;;;26.65;21.60;;;;;;;8.23;86.27;95409.41;5067459;28;20040;-70
2024/02/11 02:27:07;;;;;;;28.08;22.13;;;;;;;8.03;86.69;95389.13;5071889;28;20453;-70
2024/02/11 02:29:33;;;;;;;24.80;19.60;;;;;;;8.19;86.72;95403.81;5070762;28;20032;-69
2024/02/11 02:31:58;;;;;;;25.92;20.23;;;;;;;8.19;86.27;95403.81;5071844;28;20251;-69
2024/02/11 02:34:23;;;;;;;22.63;17.90;;;;;;;8.17;86.46;95411.38;5070686;28;20450;-69
2024/02/11 02:36:49;;;;;;;22.00;19.25;;;;;;;8.14;86.22;95406.63;5071882;28;20023;-70
2024/02/11 02:39:14;;;;;;;21.75;19.20;;;;;;;8.15;86.25;95408.19;5069058;28;20510;-70
2024/02/11 02:41:40;;;;;;;22.20;18.50;;;;;;;8.16;86.30;95399.09;5071633;28;20365;-69
2024/02/11 02:44:06;;;;;;;23.10;19.17;;;;;;;8.02;86.83;95371.47;5071735;28;20566;-69
2024/02/11 02:46:31;;;;;;;21.75;19.13;;;;;;;8.14;86.96;95401.28;5071302;28;20025;-69
2024/02/11 02:48:57;;;;;;;20.52;18.33;;;;;;;8.13;86.99;95402.34;5071493;28;20052;-68
2024/02/11 02:51:22;;;;;;;22.70;18.40;;;;;;;8.11;86.75;95407.22;5071902;28;20033;-70
2024/02/11 02:53:49;;;;;;;23.50;18.92;;;;;;;8.10;86.15;95394.91;5071358;28;20388;-70
2024/02/11 02:56:17;;;;;;;23.17;18.55;;;;;;;8.08;86.98;95407.00;5071243;28;20423;-70
2024/02/11 02:58:43;;;;;;;25.65;20.08;;;;;;;8.06;86.39;95426.06;5067176;28;20492;-70
2024/02/11 03:01:08;;;;;;;28.38;20.70;;;;;;;7.99;86.28;95420.31;5071434;28;20031;-68
2024/02/11 03:03:33;;;;;;;34.75;24.55;;;;;;;7.67;87.17;95406.94;5071400;28;20040;-68
2024/02/11 03:05:59;;;;;;;41.60;25.88;;;;;;;7.57;87.00;95417.81;5071143;28;20036;-68
2024/02/11 03:08:25;;;;;;;31.45;23.48;;;;;;;7.59;87.46;95421.00;5071212;28;20040;-68
2024/02/11 03:10:51;;;;;;;29.10;21.23;;;;;;;7.62;87.75;95431.13;5071114;28;20507;-69
2024/02/11 03:13:16;;;;;;;26.33;20.35;;;;;;;7.62;87.31;95425.78;5071427;28;20052;-70
2024/02/11 03:15:43;;;;;;;26.05;20.92;;;;;;;7.64;87.59;95418.25;5069712;28;20024;-70
2024/02/11 03:18:09;;;;;;;26.50;21.73;;;;;;;7.64;86.56;95429.75;5071256;28;20060;-71
2024/02/11 03:20:35;;;;;;;25.98;20.58;;;;;;;7.65;86.78;95427.88;5049935;28;20075;-70
2024/02/11 03:23:00;;;;;;;24.85;20.65;;;;;;;7.67;87.30;95428.38;5069184;28;20040;-70
2024/02/11 03:25:26;;;;;;;25.20;21.13;;;;;;;7.71;86.96;95429.38;5069843;28;20031;-69
2024/02/11 03:27:54;;;;;;;35.13;24.27;;;;;;;7.72;87.25;95430.97;5071308;28;20032;-69
2024/02/11 03:30:21;;;;;;;28.92;22.75;;;;;;;7.68;87.61;95424.59;5069761;28;20029;-70
2024/02/11 03:32:50;;;;;;;27.88;22.38;;;;;;;7.75;86.97;95433.03;5053461;28;20103;-69
2024/02/11 03:35:16;;;;;;;24.88;21.30;;;;;;;7.67;87.31;95428.38;5069551;28;20024;-69
2024/02/11 03:37:42;;;;;;;24.60;20.73;;;;;;;7.79;87.34;95452.81;5069757;28;20060;-69
2024/02/11 03:40:09;;;;;;;28.65;23.30;;;;;;;7.80;87.21;95446.34;5067198;28;20540;-69
2024/02/11 03:42:35;;;;;;;30.90;23.88;;;;;;;7.66;86.73;95426.78;5066630;28;20048;-69
2024/02/11 03:45:11;;;;;;;31.30;24.55;;;;;;;7.80;87.04;95449.03;5066082;28;20170;-69
2024/02/11 03:47:39;;;;;;;33.10;25.35;;;;;;;7.79;87.17;95460.84;5065031;28;20078;-69
2024/02/11 03:50:06;;;;;;;30.83;23.75;;;;;;;7.79;87.59;95463.53;5067227;28;20046;-69
2024/02/11 03:52:34;;;;;;;27.08;22.55;;;;;;;7.81;87.40;95461.34;5070832;28;20068;-69
2024/02/11 03:55:00;;;;;;;29.52;22.77;;;;;;;7.82;87.63;95468.28;5070357;28;21535;-68
2024/02/11 03:57:26;;;;;;;29.10;23.63;;;;;;;7.84;87.24;95465.34;5070986;28;20612;-69
2024/02/11 03:59:51;;;;;;;32.22;26.25;;;;;;;7.83;88.10;95464.53;5070770;28;20028;-69
2024/02/11 04:02:18;;;;;;;34.88;27.77;;;;;;;7.86;87.71;95473.88;5070935;28;20093;-68
2024/02/11 04:04:45;;;;;;;36.60;28.75;;;;;;;7.82;87.97;95476.31;5070452;28;20056;-69
2024/02/11 04:07:10;;;;;;;37.05;28.73;;;;;;;7.79;88.64;95476.94;5070869;28;20036;-70
2024/02/11 04:09:42;;;;;;;42.08;29.58;;;;;;;7.73;88.91;95475.41;5069417;28;20082;-69
2024/02/11 04:12:07;;;;;;;34.28;27.77;;;;;;;7.72;89.15;95473.84;5061760;28;20043;-69
2024/02/11 04:14:36;;;;;;;51.42;37.00;;;;;;;7.77;89.04;95481.75;5073304;28;20021;-69
2024/02/11 04:17:03;;;;;;;42.47;31.35;;;;;;;7.77;89.40;95481.75;5074659;28;20051;-70
2024/02/11 04:19:32;;;;;;;29.70;24.77;;;;;;;7.61;89.88;95456.31;5074462;28;20158;-69
2024/02/11 04:21:58;;;;;;;52.78;39.30;;;;;;;7.78;89.46;95488.72;5071980;28;20033;-69
2024/02/11 04:24:23;;;;;;;46.45;35.78;;;;;;;7.77;90.31;95487.13;5076989;28;20017;-69
2024/02/11 04:26:53;;;;;;;43.58;33.47;;;;;;;7.79;89.91;95479.59;5069721;28;20399;-69
2024/02/11 04:29:19;;;;;;;40.72;30.77;;;;;;;7.88;90.13;95496.59;5072697;28;20037;-69
2024/02/11 04:31:44;;;;;;;39.25;31.80;;;;;;;7.93;90.17;95496.53;5067503;28;20032;-69
2024/02/11 04:34:10;;;;;;;34.55;28.95;;;;;;;7.96;89.87;95497.81;5075224;28;20062;-69
2024/02/11 04:36:37;;;;;;;36.47;29.83;;;;;;;8.01;90.27;95501.19;5074762;28;20072;-70
2024/02/11 04:39:08;;;;;;;33.45;27.90;;;;;;;7.94;90.34;95470.50;5071000;28;20128;-69
2024/02/11 04:41:37;;;;;;;40.03;30.90;;;;;;;8.09;90.16;95489.81;5070655;28;20111;-69
2024/02/11 04:44:05;;;;;;;35.67;28.10;;;;;;;8.13;90.32;95477.41;5073026;28;20484;-69
2024/02/11 04:46:32;;;;;;;32.40;27.40;;;;;;;8.19;90.04;95488.84;5051365;28;20116;-69
2024/02/11 04:48:58;;;;;;;33.38;27.23;;;;;;;8.22;90.35;95483.66;5073173;28;20020;-69
2024/02/11 04:51:27;;;;;;;33.88;28.70;;;;;;;8.26;90.00;95489.28;5074429;28;20056;-69
2024/02/11 04:53:53;;;;;;;37.58;29.35;;;;;;;8.24;90.12;95492.19;5072806;28;20035;-69
2024/02/11 04:56:18;;;;;;;35.00;29.33;;;;;;;8.26;89.96;95498.09;5074170;28;20036;-69
2024/02/11 04:58:44;;;;;;;30.60;26.48;;;;;;;8.20;90.33;95495.78;5073852;28;20029;-69
2024/02/11 05:01:09;;;;;;;41.67;32.22;;;;;;;8.30;90.13;95512.53;5074185;28;20112;-69
2024/02/11 05:03:34;;;;;;;39.78;31.17;;;;;;;8.19;90.85;95504.91;5072816;28;20029;-69
2024/02/11 05:06:00;;;;;;;47.28;36.92;;;;;;;8.12;91.18;95505.28;5072353;28;20080;-69
2024/02/11 05:08:27;;;;;;;37.55;31.65;;;;;;;8.10;90.96;95509.34;5073799;28;20033;-69
2024/02/11 05:10:53;;;;;;;49.53;38.13;;;;;;;8.14;91.00;95519.22;5073249;28;20050;-70
2024/02/11 05:13:18;;;;;;;37.20;31.52;;;;;;;8.15;91.10;95515.41;5071555;28;20103;-70
2024/02/11 05:15:48;;;;;;;37.20;31.27;;;;;;;8.17;90.93;95518.59;5072266;28;20036;-69
2024/02/11 05:18:18;;;;;;;38.20;30.33;;;;;;;8.21;91.30;95516.16;5072678;28;20036;-69
2024/02/11 05:20:45;;;;;;;45.35;33.55;;;;;;;8.21;90.56;95524.97;5072027;28;20497;-69
2024/02/11 05:23:10;;;;;;;33.15;27.70;;;;;;;8.20;90.60;95528.75;5065785;28;20071;-69
2024/02/11 05:25:40;;;;;;;39.72;32.17;;;;;;;8.14;90.75;95505.81;5068510;28;20040;-69
2024/02/11 05:28:09;;;;;;;36.42;30.52;;;;;;;8.22;90.95;95513.16;5072124;28;20123;-69
2024/02/11 05:30:37;;;;;;;35.42;30.05;;;;;;;8.31;90.91;95524.81;5072097;28;20024;-70
2024/02/11 05:33:04;;;;;;;34.35;28.25;;;;;;;8.29;90.57;95516.28;5052836;28;20025;-70
2024/02/11 05:35:34;;;;;;;37.58;29.98;;;;;;;8.38;90.30;95529.03;5067191;28;20020;-71
2024/02/11 05:38:01;;;;;;;39.45;30.13;;;;;;;8.32;90.58;95521.06;5075503;28;20040;-70
2024/02/11 05:40:31;;;;;;;36.22;28.92;;;;;;;8.38;90.88;95527.09;5073153;28;20028;-69
2024/02/11 05:42:58;;;;;;;35.35;28.38;;;;;;;8.37;91.16;95530.09;5070646;28;20029;-69
2024/02/11 05:45:25;;;;;;;34.20;28.40;;;;;;;8.41;90.68;95534.56;5071922;28;20021;-70
2024/02/11 05:47:51;;;;;;;35.53;29.73;;;;;;;8.25;90.67;95514.44;5074051;28;20492;-70
2024/02/11 05:50:16;;;;;;;38.03;31.02;;;;;;;8.41;90.99;95534.56;5072401;28;20025;-70
2024/02/11 05:52:43;;;;;;;35.05;29.20;;;;;;;8.39;90.80;95533.28;5064259;28;20039;-70
2024/02/11 05:55:09;;;;;;;38.90;31.73;;;;;;;8.23;90.94;95522.81;5072035;28;20110;-71
2024/02/11 05:57:39;;;;;;;34.35;29.40;;;;;;;8.37;91.24;95543.50;5072330;28;20048;-70
2024/02/11 06:00:11;;;;;;;45.72;34.00;;;;;;;8.41;90.95;95536.44;5072461;28;20033;-69
2024/02/11 06:02:38;;;;;;;37.00;29.95;;;;;;;8.41;91.36;95531.09;5070534;28;20036;-70
2024/02/11 06:05:06;;;;;;;41.67;32.25;;;;;;;8.41;90.83;95547.19;5054689;28;20031;-68
2024/02/11 06:07:33;;;;;;;374.27;293.02;;;;;;;8.39;91.49;95557.41;5074253;28;20143;-69
2024/02/11 06:09:58;;;;;;;176.23;139.57;;;;;;;8.34;91.92;95545.69;5073456;28;20029;-70
2024/02/11 06:12:24;;;;;;;52.83;43.88;;;;;;;8.34;91.75;95556.41;5070211;28;20151;-70
2024/02/11 06:14:49;;;;;;;47.60;35.72;;;;;;;8.32;91.46;95553.22;5070403;28;20051;-70
2024/02/11 06:17:15;;;;;;;38.83;31.75;;;;;;;8.33;91.96;95559.41;5072129;28;20048;-70
2024/02/11 06:19:40;;;;;;;41.20;34.88;;;;;;;8.34;92.13;95567.13;5072701;28;20070;-71
2024/02/11 06:22:06;;;;;;;43.63;35.53;;;;;;;8.32;92.32;95563.97;5071060;28;20036;-71
2024/02/11 06:24:32;;;;;;;49.25;37.63;;;;;;;8.41;92.08;95571.31;5069072;28;20032;-71
2024/02/11 06:26:59;;;;;;;56.22;44.20;;;;;;;8.39;91.77;95581.53;5072652;28;20044;-71
2024/02/11 06:29:27;;;;;;;49.47;38.63;;;;;;;8.42;91.67;95583.63;5072352;28;20100;-71
2024/02/11 06:31:53;;;;;;;49.13;37.63;;;;;;;8.38;91.88;95582.66;5082208;28;20135;-71
2024/02/11 06:34:18;;;;;;;53.38;42.88;;;;;;;8.33;91.90;95581.63;5071142;28;20047;-71
2024/02/11 06:36:43;;;;;;;49.30;39.33;;;;;;;8.39;91.93;95589.59;5072188;28;20485;-71
2024/02/11 06:39:10;;;;;;;54.03;42.17;;;;;;;8.43;91.51;95585.22;5072174;28;20434;-71
2024/02/11 06:41:37;;;;;;;46.92;37.88;;;;;;;8.48;91.93;95603.91;5071138;28;20036;-71
2024/02/11 06:44:04;;;;;;;49.47;36.15;;;;;;;8.48;92.00;95593.19;5067967;28;20023;-71
2024/02/11 06:46:32;;;;;;;53.08;39.13;;;;;;;8.41;91.38;95592.75;5060924;28;20116;-72
2024/02/11 06:49:00;;;;;;;46.97;36.08;;;;;;;8.45;92.00;95615.25;5052847;28;20028;-71
2024/02/11 06:51:25;;;;;;;62.58;42.88;;;;;;;8.41;92.34;95608.84;5071892;28;20040;-71
2024/02/11 06:53:51;;;;;;;56.10;40.03;;;;;;;8.44;92.42;95619.00;5074037;28;20085;-71
2024/02/11 06:56:17;;;;;;;45.00;36.13;;;;;;;8.42;92.25;95618.50;5070863;28;20063;-71
2024/02/11 06:58:42;;;;;;;56.63;40.42;;;;;;;8.44;92.89;95625.16;5071746;28;20054;-71
2024/02/11 07:01:10;;;;;;;47.20;36.45;;;;;;;8.33;92.98;95624.53;5071503;28;20029;-71
2024/02/11 07:03:37;;;;;;;62.33;43.08;;;;;;;8.44;92.41;95635.91;5070108;28;20046;-71
2024/02/11 07:06:05;;;;;;;50.60;37.95;;;;;;;8.45;92.04;95631.34;5066266;28;20411;-71
2024/02/11 07:08:32;;;;;;;48.40;36.58;;;;;;;8.49;92.52;95637.69;5069456;28;20052;-71
2024/02/11 07:10:57;;;;;;;66.40;42.50;;;;;;;8.51;92.08;95640.88;5070536;28;20058;-71
2024/02/11 07:13:23;;;;;;;87.40;51.53;;;;;;;8.51;92.21;95640.88;5071689;28;20060;-71
2024/02/11 07:15:48;;;;;;;82.25;51.80;;;;;;;8.53;92.11;95638.69;5071545;28;20028;-71
2024/02/11 07:18:13;;;;;;;62.60;43.22;;;;;;;8.52;92.30;95645.16;5071015;28;20059;-71
2024/02/11 07:20:39;;;;;;;60.20;44.72;;;;;;;8.51;92.09;95648.94;5069057;28;20484;-71
2024/02/11 07:23:05;;;;;;;59.33;44.72;;;;;;;8.53;92.31;95639.50;5068642;28;20016;-70
2024/02/11 07:25:30;;;;;;;65.15;46.80;;;;;;;8.57;92.73;95656.59;5051277;28;20431;-71
2024/02/11 07:27:56;;;;;;;53.00;42.63;;;;;;;8.50;92.41;95655.38;5069171;28;20013;-71
2024/02/11 07:30:22;;;;;;;79.03;52.35;;;;;;;8.55;92.46;95657.97;5067096;28;20394;-72
2024/02/11 07:32:47;;;;;;;50.00;39.67;;;;;;;8.57;92.79;95661.94;5069081;28;20400;-71
2024/02/11 07:35:13;;;;;;;59.28;43.95;;;;;;;8.55;92.45;95657.97;5049445;28;20407;-71
2024/02/11 07:37:39;;;;;;;58.85;42.60;;;;;;;8.62;92.96;95672.59;5069626;28;20016;-70
2024/02/11 07:40:09;;;;;;;59.45;44.60;;;;;;;8.59;93.19;95672.41;5070954;28;20094;-71
2024/02/11 07:42:34;;;;;;;65.65;46.58;;;;;;;8.63;93.39;95671.53;5071185;28;20025;-71
2024/02/11 07:45:00;;;;;;;67.20;45.92;;;;;;;8.67;92.75;95677.09;5070438;28;20039;-71
2024/02/11 07:47:25;;;;;;;97.70;56.53;;;;;;;8.47;92.91;95658.66;5064103;28;20024;-72
2024/02/11 07:49:51;;;;;;;65.65;45.80;;;;;;;8.62;93.19;95680.66;5073308;28;20385;-71
2024/02/11 07:52:18;;;;;;;89.00;51.95;;;;;;;8.62;93.55;95680.66;5075490;28;20116;-71
2024/02/11 07:54:48;;;;;;;70.28;48.10;;;;;;;8.66;93.49;95675.50;5075124;28;20036;-70
2024/02/11 07:57:15;;;;;;;71.30;45.00;;;;;;;8.63;93.90;95676.91;5068592;28;20028;-70
2024/02/11 07:59:41;;;;;;;54.40;39.88;;;;;;;8.59;93.61;95675.09;5075704;28;20111;-71
2024/02/11 08:02:07;;;;;;;73.93;47.20;;;;;;;8.68;94.06;95690.19;5064297;28;20012;-71
2024/02/11 08:04:33;;;;;;;74.95;45.53;;;;;;;8.66;93.90;95686.25;5074132;28;20043;-71
2024/02/11 08:06:59;;;;;;;79.95;46.17;;;;;;;8.62;94.49;95691.38;5074356;28;20028;-71
2024/02/11 08:09:24;;;;;;;50.72;35.70;;;;;;;8.53;95.02;95690.47;5074125;28;20040;-71
2024/02/11 08:11:50;;;;;;;49.08;35.45;;;;;;;8.54;95.51;95693.94;5057377;28;20142;-71
2024/02/11 08:14:17;;;;;;;29.80;24.35;;;;;;;8.53;95.60;95687.78;5074995;28;20040;-71
2024/02/11 08:16:43;;;;;;;32.78;26.40;;;;;;;8.54;96.28;95702.75;5075125;28;20024;-71
2024/02/11 08:19:08;;;;;;;25.85;22.20;;;;;;;8.52;96.41;95702.25;5073897;28;20039;-71
2024/02/11 08:21:35;;;;;;;23.05;19.38;;;;;;;8.31;96.77;95685.69;5074089;28;20050;-71
2024/02/11 08:24:02;;;;;;;23.63;19.13;;;;;;;8.53;96.08;95713.78;5075328;28;20032;-70
2024/02/11 08:26:28;;;;;;;22.75;18.75;;;;;;;8.58;96.38;95716.41;5074511;28;20029;-70
2024/02/11 08:28:59;;;;;;;17.90;16.10;;;;;;;8.49;96.18;95702.06;5066491;28;20036;-71
2024/02/11 08:31:24;;;;;;;13.23;11.85;;;;;;;8.52;96.02;95725.63;5074113;28;20560;-70
2024/02/11 08:33:49;;;;;;;14.77;13.20;;;;;;;8.50;96.09;95725.09;5074531;28;20021;-71
2024/02/11 08:36:15;;;;;;;10.07;9.15;;;;;;;8.33;96.36;95713.00;5073245;28;20032;-72
2024/02/11 08:38:40;;;;;;;10.07;9.18;;;;;;;8.43;95.88;95730.03;5073664;28;20377;-71
2024/02/11 08:41:06;;;;;;;8.63;7.90;;;;;;;8.39;95.74;95729.03;5072881;28;20078;-71
2024/02/11 08:43:32;;;;;;;8.18;7.47;;;;;;;8.48;96.07;95735.31;5073420;28;20025;-70
2024/02/11 08:46:03;;;;;;;7.60;6.90;;;;;;;8.42;95.99;95740.00;5056314;28;20064;-72
2024/02/11 08:48:31;;;;;;;6.68;6.18;;;;;;;8.42;95.44;95741.88;5077211;28;20032;-70
2024/02/11 08:50:57;;;;;;;10.50;9.35;;;;;;;8.42;95.25;95747.22;5085732;28;20032;-71
2024/02/11 08:53:22;;;;;;;6.20;5.70;;;;;;;8.42;95.31;95747.22;5076685;28;20036;-70
2024/02/11 08:55:48;;;;;;;5.28;4.88;;;;;;;8.32;95.04;95766.94;5072351;28;20033;-71
2024/02/11 08:58:17;;;;;;;4.72;4.43;;;;;;;8.33;95.07;95752.47;5074013;28;20037;-70
2024/02/11 09:00:42;;;;;;;5.13;4.75;;;;;;;8.31;94.98;95760.78;5065786;28;20032;-70
2024/02/11 09:03:08;;;;;;;5.40;5.00;;;;;;;8.30;95.23;95759.19;5074184;28;20166;-71
2024/02/11 09:05:34;;;;;;;5.80;5.30;;;;;;;8.27;95.14;95770.50;5065985;28;20050;-70
2024/02/11 09:07:59;;;;;;;5.47;4.97;;;;;;;8.22;94.68;95770.53;5072320;28;20377;-70
2024/02/11 09:10:25;;;;;;;5.10;4.68;;;;;;;8.20;94.67;95763.84;5074298;28;20029;-70
2024/02/11 09:12:50;;;;;;;4.50;4.20;;;;;;;8.23;94.37;95769.44;5074015;28;20543;-71
2024/02/11 09:15:16;;;;;;;5.00;4.60;;;;;;;8.25;94.97;95782.56;5073842;28;20054;-71
2024/02/11 09:17:44;;;;;;;4.80;4.40;;;;;;;8.25;94.50;95783.34;5079827;28;20032;-71
2024/02/11 09:20:12;;;;;;;4.53;4.22;;;;;;;8.13;94.24;95768.78;5066737;28;20035;-71
2024/02/11 09:22:39;;;;;;;5.20;4.80;;;;;;;8.18;93.53;95766.84;5073700;28;20115;-71
2024/02/11 09:25:06;;;;;;;6.28;5.78;;;;;;;8.25;93.58;95783.34;5072112;28;20103;-71
2024/02/11 09:27:32;;;;;;;5.57;5.05;;;;;;;8.15;94.48;95783.47;5073401;28;20074;-71
2024/02/11 09:29:58;;;;;;;4.88;4.32;;;;;;;8.24;93.77;95808.56;5072189;28;20453;-71
2024/02/11 09:32:24;;;;;;;4.68;4.28;;;;;;;8.21;94.71;95803.78;5072661;28;20037;-70
2024/02/11 09:34:50;;;;;;;5.32;4.82;;;;;;;8.11;94.19;95798.56;5073425;28;20107;-72
2024/02/11 09:37:15;;;;;;;5.57;5.07;;;;;;;8.04;94.38;95795.44;5072977;28;20534;-72
2024/02/11 09:39:42;;;;;;;5.80;5.30;;;;;;;8.07;93.54;95802.91;5064263;28;20029;-72
2024/02/11 09:42:19;;;;;;;5.07;4.68;;;;;;;7.99;93.53;95806.19;5066803;28;20046;-71
2024/02/11 09:44:47;;;;;;;5.80;4.97;;;;;;;8.01;93.57;95809.38;5071924;28;20633;-72
2024/02/11 09:47:15;;;;;;;5.88;5.38;;;;;;;8.11;93.73;95832.59;5065540;28;20107;-72
2024/02/11 09:49:42;;;;;;;6.40;5.80;;;;;;;8.14;93.59;95824.78;5052632;28;20396;-72
2024/02/11 09:52:08;;;;;;;6.68;6.07;;;;;;;8.17;93.61;95840.28;5070059;28;20409;-72
2024/02/11 09:54:34;;;;;;;6.95;6.35;;;;;;;8.22;93.37;95837.56;5067627;28;20061;-72
2024/02/11 09:57:00;;;;;;;6.72;6.13;;;;;;;8.15;93.86;95842.47;5054060;28;20025;-71
2024/02/11 09:59:26;;;;;;;8.65;7.15;;;;;;;8.11;93.82;95833.41;5073061;28;20043;-72
2024/02/11 10:01:54;;;;;;;7.18;6.57;;;;;;;8.02;93.85;95820.91;5071825;28;20043;-72
2024/02/11 10:04:25;;;;;;;7.25;6.40;;;;;;;8.21;93.49;95841.31;5072002;28;20040;-73
2024/02/11 10:06:52;;;;;;;6.90;6.30;;;;;;;8.26;93.93;95854.69;5071965;28;20116;-72
2024/02/11 10:09:18;;;;;;;6.07;5.57;;;;;;;8.18;93.44;95852.63;5073123;28;20020;-72
2024/02/11 10:11:44;;;;;;;7.72;6.78;;;;;;;8.13;93.86;95854.56;5071628;28;20064;-72
2024/02/11 10:14:13;;;;;;;7.90;7.20;;;;;;;8.20;93.21;95849.63;5055081;28;20081;-72
2024/02/11 10:16:39;;;;;;;7.32;6.63;;;;;;;8.22;93.37;95864.34;5055289;28;20035;-72
2024/02/11 10:19:06;;;;;;;7.97;6.80;;;;;;;8.18;94.09;95859.84;5073226;28;20480;-72
2024/02/11 10:21:31;;;;;;;6.50;5.82;;;;;;;8.06;94.18;95860.25;5055364;28;20036;-71
2024/02/11 10:23:57;;;;;;;8.35;7.53;;;;;;;8.19;93.45;95869.50;5071382;28;20093;-72
2024/02/11 10:26:22;;;;;;;7.97;7.28;;;;;;;8.07;93.98;95861.88;5071336;28;20042;-72
2024/02/11 10:28:48;;;;;;;7.05;6.35;;;;;;;8.17;94.18;95883.19;5038485;28;20108;-71
2024/02/11 10:31:13;;;;;;;9.52;6.95;;;;;;;8.04;94.23;95875.03;5072822;28;20032;-71
2024/02/11 10:33:39;;;;;;;7.63;6.93;;;;;;;8.08;93.58;95892.94;5068701;28;20480;-72
2024/02/11 10:36:06;;;;;;;7.65;6.85;;;;;;;8.07;93.85;95887.88;5071979;28;20025;-71
2024/02/11 10:38:36;;;;;;;8.18;7.38;;;;;;;8.07;93.32;95877.94;5070269;28;20495;-72
2024/02/11 10:41:01;;;;;;;8.65;7.45;;;;;;;8.06;93.73;95891.63;5071682;28;20028;-71
2024/02/11 10:43:28;;;;;;;8.73;7.55;;;;;;;7.94;93.93;95880.50;5066471;28;20614;-72
2024/02/11 10:45:54;;;;;;;9.88;8.13;;;;;;;8.09;93.76;95902.59;5070795;28;20032;-72
2024/02/11 10:48:21;;;;;;;10.60;8.88;;;;;;;8.15;93.27;95901.44;5064390;28;20073;-71
2024/02/11 10:51:17;;;;;;;9.98;8.50;;;;;;;8.14;93.11;95899.84;5068329;28;20032;-71
2024/02/11 10:53:45;;;;;;;11.30;8.45;;;;;;;8.15;93.54;95898.75;5067393;28;20037;-70
2024/02/11 10:56:13;;;;;;;13.80;10.07;;;;;;;8.24;93.47;95899.72;5062621;28;20040;-70
2024/02/11 10:58:47;;;;;;;9.23;8.20;;;;;;;8.25;93.58;95906.69;5071300;28;20063;-70
2024/02/11 11:01:17;;;;;;;11.27;9.13;;;;;;;8.32;93.38;95901.81;5061646;28;20033;-72
2024/02/11 11:03:45;;;;;;;13.15;10.77;;;;;;;8.31;92.97;95904.75;5072419;28;20531;-71
2024/02/11 11:06:15;;;;;;;11.48;9.80;;;;;;;8.37;92.83;95905.50;5052686;28;20069;-70
2024/02/11 11:08:42;;;;;;;16.30;14.40;;;;;;;8.39;93.28;95911.38;5050559;28;20028;-70
2024/02/11 11:11:08;;;;;;;13.15;11.50;;;;;;;8.35;92.67;95914.63;5045100;28;20052;-70
2024/02/11 11:13:33;;;;;;;19.40;17.10;;;;;;;8.30;93.25;95919.28;5070037;28;20064;-70
2024/02/11 11:16:05;;;;;;;25.02;19.13;;;;;;;8.31;92.76;95905.56;5069578;28;20060;-70
2024/02/11 11:18:36;;;;;;;20.15;16.10;;;;;;;8.38;92.98;95920.53;5065299;28;20111;-71
2024/02/11 11:21:04;;;;;;;23.08;18.88;;;;;;;8.33;93.16;95913.34;5071222;28;20037;-70
2024/02/11 11:23:29;;;;;;;15.63;13.23;;;;;;;8.20;93.16;95906.75;5070565;28;20043;-70
2024/02/11 11:25:56;;;;;;;15.35;13.38;;;;;;;8.28;93.36;95916.84;5069004;28;20037;-71